Portada
METAR-TAF:

METAR-TAF

Aeroports :

Mahajanga, Madagascar

latitud: 15-40S, longitud: 046-21E, altitud: 26 m

Observació

L'informe es va fer fa 2 hores i 9 minuts, a les 19:00 UTC
Vent 7 kt del Nord-Oest
Temperatura 28°C
Humitat 79%
Pressió 1012 hPa
Visibilitat 10 km o més
Escasses núvols a una alçada de 2300 ft

METAR: FMNM 261900Z 31007KT 9999 FEW023 28/24 Q1012 NOSIG

Hora: 00:09 (21:09 UTC)

Pronòstic

L'informe es va fer fa 4 hores i 9 minuts, a les 17:00 UTC
Pronòstic vàlid del 26 a les 18 UTC al 27 a les 18 UTC
Vent 10 kt del Nord/Nord-Oest
Visibilitat 10 km o més
Escasses núvols a una alçada de 2000 ft
Evolucionant progressivament
l' 26 a les 19 UTC al 26 a les 21 UTC
Vent 6 kt del Est/Sud-Est
Evolucionant progressivament
l' 27 a les 08 UTC al 27 a les 10 UTC
Vent 10 kt del Nord/Nord-Oest

TAF: FMNM 261700Z 2618/2718 33010KT 9999 FEW020 BECMG 2619/2621 12006KT BECMG 2708/2710 34010KT

Observacions i pronòstics meteorològics de més de 4000 aeroports (METAR i TAF).

Les estacions disponibles són els punts grocs i vermells al mapa.

Posi el ratolí al punt desitjat per veure el nom de l'estació.

Feu clic per veure les observacions i els pronòstics meteorològics.

Per canviar el mapa: feu clic els botons verds amb una creu de color negre per apropar; al botó verd amb un guió per allunyar la imatge; o en les fletxes verdes per a mapes adjacents.


METAR-TAF: